Trabzon, Turkey
Current Conditions -  °F | °C
As of 12:20 AM on Monday 24 Nov 2014 (Local Time) from LTCG Reporting Station
Broken Clouds Broken Clouds  
Wind Chill: 50°   Ceiling: 7000
Heat Index: 50°   Visibility: 6mi
Dew Point: 41°   Wind: 22mph
Humidity: 71%   Direction: 290°WNW
Pressure: 30.15"   Gusts: NA
Location:  41°N, 39.71°E
Report Text: LTCG 232120Z 29019KT 9999 FEW035 BKN070 10/05 Q1021 NOSIG
Loading
Personal Weather Stations






























Interactive Weather Map New forecast layout! Learn more

10-Day Weather Forecast

Advertisements
Track Severe Weather on mobile